Time;durP1;ratioP1;P1;durP2;ratioP2;P2;SDS_P1;SDS_P2;PMS_P1;PMS_P2;Temp;Humidity;BMP_temperature;BMP_pressure;BME280_temperature;BME280_humidity;BME280_pressure;Samples;Min_cycle;Max_cycle;Signal;HPM_P1;HPM_P2
2021/07/09 00:01:11;;;;;;;13.00;8.43;;;11.30;99.90;;;;;;5085004;28;20190;-72
2021/07/09 00:03:39;;;;;;;12.07;8.03;;;11.40;99.90;;;;;;5079037;28;20278;-72
2021/07/09 00:06:07;;;;;;;13.90;7.77;;;11.50;99.90;;;;;;5075620;28;20523;-71
2021/07/09 00:08:34;;;;;;;21.33;8.40;;;11.50;99.90;;;;;;5075870;28;20190;-68
2021/07/09 00:11:02;;;;;;;16.13;8.10;;;11.50;99.90;;;;;;5069438;28;20589;-72
2021/07/09 00:13:30;;;;;;;16.33;9.43;;;11.60;99.90;;;;;;5081351;28;20190;-67
2021/07/09 00:15:59;;;;;;;16.23;8.93;;;11.60;99.90;;;;;;5075837;28;20184;-70
2021/07/09 00:18:26;;;;;;;17.13;7.77;;;11.70;99.90;;;;;;5079900;28;20194;-68
2021/07/09 00:20:53;;;;;;;26.63;8.47;;;11.70;99.90;;;;;;5074639;28;20261;-69
2021/07/09 00:23:21;;;;;;;17.07;7.90;;;11.70;99.90;;;;;;5076195;28;20243;-70
2021/07/09 00:25:49;;;;;;;17.63;8.90;;;11.80;99.90;;;;;;5075793;28;20276;-70
2021/07/09 00:28:16;;;;;;;16.30;7.80;;;11.80;99.90;;;;;;5079161;28;20198;-72
2021/07/09 00:30:43;;;;;;;12.70;8.00;;;11.80;99.90;;;;;;5075274;28;20262;-71
2021/07/09 00:33:11;;;;;;;16.87;8.07;;;12.00;99.90;;;;;;5075150;28;20241;-67
2021/07/09 00:35:38;;;;;;;13.70;7.70;;;12.00;99.90;;;;;;5074497;28;20710;-71
2021/07/09 00:38:05;;;;;;;17.50;8.90;;;12.00;99.90;;;;;;5076094;28;20233;-72
2021/07/09 00:40:33;;;;;;;19.37;8.57;;;12.00;99.90;;;;;;5074646;28;20214;-69
2021/07/09 00:43:00;;;;;;;20.57;9.53;;;12.10;99.90;;;;;;5074418;28;20285;-68
2021/07/09 00:45:28;;;;;;;14.10;9.93;;;12.00;99.90;;;;;;5081897;28;20565;-69
2021/07/09 00:47:55;;;;;;;17.13;9.87;;;12.00;99.90;;;;;;5074583;28;20175;-68
2021/07/09 00:50:23;;;;;;;15.03;9.30;;;12.00;99.90;;;;;;5072379;28;20283;-68
2021/07/09 00:52:50;;;;;;;17.23;9.80;;;12.00;99.90;;;;;;5062061;28;20274;-69
2021/07/09 00:55:19;;;;;;;16.10;10.13;;;11.90;99.90;;;;;;5076254;28;20229;-68
2021/07/09 00:57:50;;;;;;;15.63;10.63;;;11.80;99.90;;;;;;5073447;28;20201;-74
2021/07/09 01:00:20;;;;;;;18.50;10.10;;;11.80;99.90;;;;;;5074174;28;20178;-67
2021/07/09 01:02:48;;;;;;;14.17;9.93;;;11.80;99.90;;;;;;5073765;28;20171;-69
2021/07/09 01:05:18;;;;;;;16.23;10.67;;;11.80;99.90;;;;;;5074112;28;20210;-71
2021/07/09 01:07:46;;;;;;;19.00;11.37;;;11.90;99.90;;;;;;5074323;28;20270;-70
2021/07/09 01:10:16;;;;;;;19.07;11.67;;;11.90;99.90;;;;;;5074113;28;20678;-69
2021/07/09 01:12:44;;;;;;;15.70;11.10;;;11.90;99.90;;;;;;5078514;28;20186;-69
2021/07/09 01:15:14;;;;;;;24.30;11.57;;;11.90;99.90;;;;;;5072660;28;20179;-68
2021/07/09 01:17:42;;;;;;;19.93;11.70;;;11.90;99.90;;;;;;5064502;28;20214;-73
2021/07/09 01:20:12;;;;;;;23.70;10.77;;;11.90;99.90;;;;;;5072616;28;20638;-69
2021/07/09 01:22:44;;;;;;;24.57;11.70;;;11.90;99.90;;;;;;5070427;28;20697;-70
2021/07/09 01:25:21;;;;;;;19.07;11.50;;;11.90;99.90;;;;;;5071113;28;20700;-68
2021/07/09 01:28:00;;;;;;;19.60;11.47;;;12.00;99.90;;;;;;5085057;28;20185;-69
2021/07/09 01:30:28;;;;;;;21.97;11.63;;;12.00;99.90;;;;;;5084353;28;20262;-70
2021/07/09 01:32:57;;;;;;;23.77;11.20;;;12.00;99.90;;;;;;5073589;28;20267;-68
2021/07/09 01:35:27;;;;;;;16.03;10.90;;;12.00;99.90;;;;;;5072795;28;20182;-69
2021/07/09 01:38:01;;;;;;;18.00;9.87;;;12.00;99.90;;;;;;5073069;28;20625;-67
2021/07/09 01:40:38;;;;;;;22.10;10.93;;;12.00;99.90;;;;;;5077885;28;20189;-68
2021/07/09 01:43:07;;;;;;;21.97;11.30;;;12.00;99.90;;;;;;5073241;28;20278;-70
2021/07/09 01:45:35;;;;;;;16.60;11.73;;;11.90;99.90;;;;;;5073616;28;20207;-68
2021/07/09 01:48:03;;;;;;;18.63;12.53;;;12.00;99.90;;;;;;5072610;28;20525;-67
2021/07/09 01:50:31;;;;;;;29.07;12.97;;;11.90;99.90;;;;;;5073404;28;20171;-68
2021/07/09 01:52:59;;;;;;;26.63;13.97;;;11.90;99.90;;;;;;5075238;28;20293;-67
2021/07/09 01:55:27;;;;;;;21.00;13.97;;;11.90;99.90;;;;;;5077260;28;20265;-67
2021/07/09 01:57:54;;;;;;;18.70;13.60;;;11.90;99.90;;;;;;5071542;28;20210;-70
2021/07/09 02:00:24;;;;;;;21.13;13.63;;;11.80;99.90;;;;;;5075569;28;20639;-69
2021/07/09 02:02:52;;;;;;;28.90;13.60;;;11.80;99.90;;;;;;5073102;28;20187;-70
2021/07/09 02:05:22;;;;;;;22.30;13.67;;;11.90;99.90;;;;;;5072865;28;20729;-75
2021/07/09 02:07:54;;;;;;;22.53;14.23;;;11.80;99.90;;;;;;5070549;28;20239;-69
2021/07/09 02:10:30;;;;;;;31.60;14.00;;;11.80;99.90;;;;;;5085840;28;20178;-68
2021/07/09 02:12:59;;;;;;;22.10;12.83;;;11.90;99.90;;;;;;5052569;28;20188;-71
2021/07/09 02:15:31;;;;;;;24.73;15.20;;;11.90;99.90;;;;;;5066131;28;20232;-68
2021/07/09 02:17:58;;;;;;;27.67;13.80;;;11.80;99.90;;;;;;5072507;28;20556;-68
2021/07/09 02:20:27;;;;;;;21.83;14.13;;;11.80;99.90;;;;;;5072491;28;20179;-73
2021/07/09 02:22:59;;;;;;;24.53;14.07;;;11.90;99.90;;;;;;5071997;28;20230;-69
2021/07/09 02:25:27;;;;;;;19.53;14.03;;;11.90;99.90;;;;;;5072763;28;20215;-69
2021/07/09 02:27:58;;;;;;;25.37;15.03;;;12.00;99.90;;;;;;5072480;28;20202;-69
2021/07/09 02:30:28;;;;;;;24.10;14.57;;;11.90;99.90;;;;;;5072588;28;20191;-70
2021/07/09 02:32:55;;;;;;;25.97;14.30;;;12.00;99.90;;;;;;5073091;28;20583;-69
2021/07/09 02:35:28;;;;;;;21.87;14.77;;;12.00;99.90;;;;;;5072551;28;20175;-71
2021/07/09 02:37:56;;;;;;;24.03;15.30;;;12.10;99.90;;;;;;5068908;28;20193;-70
2021/07/09 02:40:26;;;;;;;36.47;17.07;;;12.10;99.90;;;;;;5072856;28;20214;-70
2021/07/09 02:42:55;;;;;;;34.77;17.77;;;12.10;99.90;;;;;;5072613;28;20179;-70
2021/07/09 02:45:23;;;;;;;33.47;17.97;;;12.00;99.90;;;;;;5072846;28;20590;-69
2021/07/09 02:47:51;;;;;;;35.50;16.63;;;12.10;99.90;;;;;;5072636;28;20191;-69
2021/07/09 02:50:21;;;;;;;28.37;18.17;;;12.10;99.90;;;;;;5072189;28;20525;-72
2021/07/09 02:52:50;;;;;;;30.03;17.47;;;12.10;99.90;;;;;;5068654;28;20222;-70
2021/07/09 02:55:18;;;;;;;28.67;18.23;;;12.20;99.90;;;;;;5072542;28;20245;-76
2021/07/09 02:57:46;;;;;;;30.73;18.20;;;12.20;99.90;;;;;;5072359;28;20191;-70
2021/07/09 03:00:17;;;;;;;34.67;19.57;;;12.30;99.90;;;;;;5053626;28;20637;-70
2021/07/09 03:02:45;;;;;;;34.47;18.73;;;12.30;99.90;;;;;;5064041;28;20190;-73
2021/07/09 03:05:13;;;;;;;25.73;17.20;;;12.40;99.90;;;;;;5072109;28;20382;-72
2021/07/09 03:07:40;;;;;;;34.47;17.90;;;12.40;99.90;;;;;;5072327;28;20175;-70
2021/07/09 03:10:10;;;;;;;37.67;18.53;;;12.40;99.90;;;;;;5072223;28;20207;-73
2021/07/09 03:12:39;;;;;;;36.63;19.37;;;12.40;99.90;;;;;;5072134;28;20179;-70
2021/07/09 03:15:09;;;;;;;35.53;19.30;;;12.50;99.90;;;;;;5054314;28;20685;-70
2021/07/09 03:17:36;;;;;;;33.33;20.67;;;12.50;99.90;;;;;;5057020;28;20569;-75
2021/07/09 03:20:10;;;;;;;35.17;19.50;;;12.50;99.90;;;;;;5052127;28;20634;-76
2021/07/09 03:22:39;;;;;;;33.03;18.27;;;12.60;99.90;;;;;;5052155;28;20219;-74
2021/07/09 03:25:08;;;;;;;30.47;19.20;;;12.70;99.90;;;;;;5059239;28;20210;-74
2021/07/09 03:27:37;;;;;;;37.03;19.53;;;12.70;99.90;;;;;;5072266;28;20187;-71
2021/07/09 03:30:06;;;;;;;30.70;18.10;;;12.60;99.90;;;;;;5072020;28;20285;-70
2021/07/09 03:32:33;;;;;;;37.77;18.90;;;12.60;99.90;;;;;;5064367;28;20181;-71
2021/07/09 03:35:01;;;;;;;33.97;18.60;;;12.60;99.90;;;;;;5063597;28;20179;-70
2021/07/09 03:37:28;;;;;;;30.93;18.27;;;12.70;99.90;;;;;;5072177;28;20167;-69
2021/07/09 03:39:57;;;;;;;26.07;17.87;;;12.60;99.90;;;;;;5072040;28;20532;-72
2021/07/09 03:42:25;;;;;;;32.40;17.80;;;12.60;99.90;;;;;;5054178;28;20182;-73
2021/07/09 03:44:52;;;;;;;29.07;18.03;;;12.60;99.90;;;;;;5071973;28;20827;-70
2021/07/09 03:47:20;;;;;;;30.97;17.93;;;12.60;99.90;;;;;;5071835;28;20542;-70
2021/07/09 03:49:47;;;;;;;27.97;16.83;;;12.60;99.90;;;;;;5083733;28;20191;-69
2021/07/09 03:52:15;;;;;;;34.23;18.70;;;12.60;99.90;;;;;;5071951;28;20259;-70
2021/07/09 03:54:43;;;;;;;32.70;19.43;;;12.60;99.90;;;;;;5071871;28;20210;-70
2021/07/09 03:57:11;;;;;;;25.07;17.10;;;12.70;99.90;;;;;;5053938;28;20624;-70
2021/07/09 03:59:38;;;;;;;28.13;16.53;;;12.60;99.90;;;;;;5071888;28;20167;-69
2021/07/09 04:02:06;;;;;;;32.00;18.70;;;12.60;99.90;;;;;;5073545;28;20175;-69
2021/07/09 04:04:33;;;;;;;32.30;18.10;;;12.60;99.90;;;;;;5066813;28;20210;-70
2021/07/09 04:07:01;;;;;;;31.83;17.87;;;12.60;99.90;;;;;;5071863;28;20198;-70
2021/07/09 04:09:28;;;;;;;31.40;18.57;;;12.60;99.90;;;;;;5062159;28;20233;-70
2021/07/09 04:11:55;;;;;;;28.70;18.10;;;12.60;99.90;;;;;;5072832;28;20193;-69
2021/07/09 04:14:23;;;;;;;29.70;17.67;;;12.70;99.90;;;;;;5071105;28;20180;-70
2021/07/09 04:16:50;;;;;;;35.43;17.03;;;12.60;99.90;;;;;;5076212;28;20202;-68
2021/07/09 04:19:18;;;;;;;28.40;18.40;;;12.60;99.90;;;;;;5068742;28;20180;-67
2021/07/09 04:21:45;;;;;;;23.03;15.70;;;12.70;99.90;;;;;;5060572;28;20717;-68
2021/07/09 04:24:13;;;;;;;32.90;16.80;;;12.60;99.90;;;;;;5092224;28;20273;-68
2021/07/09 04:26:40;;;;;;;26.83;15.60;;;12.60;99.90;;;;;;5079576;28;20233;-73
2021/07/09 04:29:07;;;;;;;26.87;15.67;;;12.60;99.90;;;;;;5070679;28;20266;-73
2021/07/09 04:31:35;;;;;;;23.73;16.03;;;12.60;99.90;;;;;;5084773;28;20633;-73
2021/07/09 04:34:02;;;;;;;24.10;15.87;;;12.50;99.90;;;;;;5060608;28;20179;-74
2021/07/09 04:36:29;;;;;;;26.67;15.63;;;12.50;99.90;;;;;;5053910;28;20754;-71
2021/07/09 04:38:57;;;;;;;23.83;15.63;;;12.50;99.90;;;;;;5069515;28;20183;-72
2021/07/09 04:41:24;;;;;;;24.93;15.70;;;12.50;99.90;;;;;;5076852;28;20556;-74
2021/07/09 04:43:51;;;;;;;22.20;15.40;;;12.50;99.90;;;;;;5073657;28;20233;-70
2021/07/09 04:46:19;;;;;;;23.77;15.60;;;12.50;99.90;;;;;;5074208;28;20218;-70
2021/07/09 04:48:46;;;;;;;25.07;15.23;;;12.50;99.90;;;;;;5072885;28;20202;-71
2021/07/09 04:51:14;;;;;;;28.00;15.80;;;12.50;99.90;;;;;;5073496;28;20179;-69
2021/07/09 04:53:41;;;;;;;27.90;15.53;;;12.50;99.90;;;;;;5074171;28;20183;-68
2021/07/09 04:56:08;;;;;;;25.33;15.63;;;12.50;99.90;;;;;;5078161;28;20190;-68
2021/07/09 04:58:36;;;;;;;39.80;18.80;;;12.50;99.90;;;;;;5072878;28;20179;-70
2021/07/09 05:01:03;;;;;;;22.60;14.93;;;12.50;99.90;;;;;;5065803;28;20258;-67
2021/07/09 05:03:31;;;;;;;23.40;15.00;;;12.40;99.90;;;;;;5063121;28;20180;-69
2021/07/09 05:05:58;;;;;;;22.97;14.70;;;12.40;99.90;;;;;;5072952;28;20227;-69
2021/07/09 05:08:25;;;;;;;22.53;14.83;;;12.40;99.90;;;;;;5070314;28;20552;-69
2021/07/09 05:10:53;;;;;;;22.10;15.27;;;12.40;99.90;;;;;;5070633;28;20197;-67
2021/07/09 05:13:20;;;;;;;23.17;15.70;;;12.40;99.90;;;;;;5073218;28;20330;-68
2021/07/09 05:15:47;;;;;;;20.37;14.27;;;12.40;99.90;;;;;;5064668;28;20187;-70
2021/07/09 05:18:15;;;;;;;26.50;16.50;;;12.40;99.90;;;;;;5072679;28;20223;-67
2021/07/09 05:20:42;;;;;;;27.47;15.77;;;12.50;99.90;;;;;;5070141;28;20267;-66
2021/07/09 05:23:09;;;;;;;24.20;15.60;;;12.40;99.90;;;;;;5074026;28;20219;-68
2021/07/09 05:25:37;;;;;;;24.33;14.23;;;12.50;99.90;;;;;;5067478;28;20215;-67
2021/07/09 05:28:06;;;;;;;21.87;13.43;;;12.40;99.90;;;;;;5073854;28;20204;-67
2021/07/09 05:30:34;;;;;;;22.43;13.67;;;12.40;99.90;;;;;;5068457;28;20176;-67
2021/07/09 05:33:01;;;;;;;22.80;14.57;;;12.40;99.90;;;;;;5067319;28;20547;-67
2021/07/09 05:35:29;;;;;;;24.33;12.90;;;12.50;99.90;;;;;;5072669;28;20645;-67
2021/07/09 05:37:56;;;;;;;20.80;14.00;;;12.40;99.90;;;;;;5077535;28;20179;-68
2021/07/09 05:40:23;;;;;;;27.23;14.90;;;12.50;99.90;;;;;;5070952;28;20657;-68
2021/07/09 05:42:51;;;;;;;25.07;15.53;;;12.50;99.90;;;;;;5072435;28;20182;-70
2021/07/09 05:45:18;;;;;;;25.83;15.17;;;12.50;99.90;;;;;;5075132;28;20207;-67
2021/07/09 05:47:45;;;;;;;26.23;15.37;;;12.40;99.90;;;;;;5072126;28;20174;-69
2021/07/09 05:50:13;;;;;;;19.33;14.40;;;12.40;99.90;;;;;;5072333;28;20320;-68
2021/07/09 05:52:40;;;;;;;20.40;14.90;;;12.40;99.90;;;;;;5069913;28;20193;-68
2021/07/09 05:55:08;;;;;;;20.63;14.90;;;12.40;99.90;;;;;;5071852;28;20700;-71
2021/07/09 05:57:38;;;;;;;26.37;15.20;;;12.30;99.90;;;;;;5072102;28;20253;-68
2021/07/09 06:00:08;;;;;;;22.03;15.57;;;12.30;99.90;;;;;;5074887;28;20229;-67
2021/07/09 06:02:35;;;;;;;28.67;17.00;;;12.30;99.90;;;;;;5071439;28;20176;-67
2021/07/09 06:05:03;;;;;;;25.13;16.27;;;12.30;99.90;;;;;;5055174;28;20214;-69
2021/07/09 06:07:31;;;;;;;25.00;16.97;;;12.30;99.90;;;;;;5072195;28;20221;-71
2021/07/09 06:09:58;;;;;;;27.97;17.27;;;12.30;99.90;;;;;;5072103;28;20180;-68
2021/07/09 06:12:26;;;;;;;28.13;17.00;;;12.30;99.90;;;;;;5072254;28;20213;-68
2021/07/09 06:14:55;;;;;;;26.10;16.73;;;12.30;99.90;;;;;;5073558;28;20214;-72
2021/07/09 06:17:23;;;;;;;27.50;17.70;;;12.20;99.90;;;;;;5074296;28;20184;-68
2021/07/09 06:19:50;;;;;;;32.33;18.07;;;12.20;99.90;;;;;;5071852;28;20867;-68
2021/07/09 06:22:18;;;;;;;23.43;17.20;;;12.20;99.90;;;;;;5071157;28;20576;-68
2021/07/09 06:24:45;;;;;;;22.53;15.77;;;12.30;99.90;;;;;;5073244;28;20657;-68
2021/07/09 06:27:12;;;;;;;26.13;15.83;;;12.20;99.90;;;;;;5072101;28;20533;-71
2021/07/09 06:29:40;;;;;;;20.83;14.40;;;12.20;99.90;;;;;;5071244;28;20661;-70
2021/07/09 06:32:07;;;;;;;21.77;13.73;;;12.30;99.90;;;;;;5071902;28;20184;-68
2021/07/09 06:34:35;;;;;;;20.00;13.87;;;12.20;99.90;;;;;;5070464;28;20183;-70
2021/07/09 06:37:02;;;;;;;20.00;13.97;;;12.20;99.90;;;;;;5072046;28;20206;-67
2021/07/09 06:39:32;;;;;;;23.17;13.53;;;12.30;99.90;;;;;;5072552;28;20183;-69
2021/07/09 06:42:00;;;;;;;18.67;11.90;;;12.20;99.90;;;;;;5072419;28;20653;-73
2021/07/09 06:44:27;;;;;;;17.70;12.40;;;12.20;99.90;;;;;;5081237;28;20195;-70
2021/07/09 06:46:54;;;;;;;16.70;12.63;;;12.30;99.90;;;;;;5085045;28;20282;-72
2021/07/09 06:49:22;;;;;;;20.00;11.40;;;12.20;99.90;;;;;;5072034;28;20227;-71
2021/07/09 06:51:50;;;;;;;19.33;11.10;;;12.30;99.90;;;;;;5053362;28;20186;-72
2021/07/09 06:54:17;;;;;;;16.20;10.97;;;12.30;99.90;;;;;;5071849;28;20861;-72
2021/07/09 06:56:44;;;;;;;17.93;10.47;;;12.20;99.90;;;;;;5072366;28;20309;-73
2021/07/09 06:59:12;;;;;;;17.13;10.43;;;12.20;99.90;;;;;;5080149;28;20224;-75
2021/07/09 07:01:39;;;;;;;14.13;9.30;;;12.20;99.90;;;;;;5060914;28;20175;-72
2021/07/09 07:04:09;;;;;;;19.07;8.27;;;12.20;99.90;;;;;;5071599;28;20597;-71
2021/07/09 07:06:37;;;;;;;13.30;8.40;;;12.20;99.90;;;;;;5071126;28;20215;-69
2021/07/09 07:09:06;;;;;;;7.77;5.40;;;12.20;99.90;;;;;;5054376;28;20625;-69
2021/07/09 07:11:33;;;;;;;8.97;5.50;;;12.10;99.90;;;;;;5065630;28;20192;-70
2021/07/09 07:14:01;;;;;;;11.00;4.93;;;12.10;99.90;;;;;;5058136;28;20182;-68
2021/07/09 07:16:28;;;;;;;7.47;4.80;;;12.10;99.90;;;;;;5082223;28;20182;-70
2021/07/09 07:18:55;;;;;;;7.30;3.80;;;12.10;99.90;;;;;;5082409;28;20191;-68
2021/07/09 07:21:23;;;;;;;9.23;4.37;;;12.00;99.90;;;;;;5079807;28;20186;-72
2021/07/09 07:23:50;;;;;;;7.93;3.90;;;12.00;99.90;;;;;;5073824;28;20262;-70
2021/07/09 07:26:18;;;;;;;9.70;3.70;;;12.00;99.90;;;;;;5071269;28;20229;-71
2021/07/09 07:28:45;;;;;;;7.10;3.73;;;12.00;99.90;;;;;;5054042;28;20522;-68
2021/07/09 07:31:13;;;;;;;8.00;4.00;;;11.90;99.90;;;;;;5071932;28;20187;-71
2021/07/09 07:33:41;;;;;;;8.03;3.50;;;12.00;99.90;;;;;;5053278;28;20175;-68
2021/07/09 07:36:09;;;;;;;3.80;2.83;;;11.90;99.90;;;;;;5071300;28;20242;-70
2021/07/09 07:38:37;;;;;;;9.20;3.10;;;11.90;99.90;;;;;;5067181;28;20456;-71
2021/07/09 07:41:05;;;;;;;5.60;2.90;;;11.90;99.90;;;;;;5069342;28;20180;-69
2021/07/09 07:43:32;;;;;;;10.87;3.17;;;11.90;99.90;;;;;;5075039;28;20648;-70
2021/07/09 07:45:59;;;;;;;5.10;2.80;;;11.90;99.90;;;;;;5078376;28;20218;-71
2021/07/09 07:48:27;;;;;;;10.50;3.87;;;11.90;99.90;;;;;;5078193;28;20228;-70
2021/07/09 07:50:54;;;;;;;6.13;3.77;;;11.90;99.90;;;;;;5077075;28;20613;-72
2021/07/09 07:53:22;;;;;;;6.13;3.60;;;11.90;99.90;;;;;;5077461;28;20266;-71
2021/07/09 07:55:49;;;;;;;8.00;3.67;;;11.80;99.90;;;;;;5081902;28;20641;-71
2021/07/09 07:58:16;;;;;;;8.53;3.70;;;11.90;99.90;;;;;;5080199;28;20269;-72
2021/07/09 08:00:43;;;;;;;7.40;3.90;;;11.80;99.90;;;;;;5076918;28;20231;-74
2021/07/09 08:03:12;;;;;;;8.13;3.90;;;11.80;99.90;;;;;;5086217;28;20315;-68
2021/07/09 08:05:39;;;;;;;7.50;3.47;;;11.80;99.90;;;;;;5074641;28;20238;-73
2021/07/09 08:08:08;;;;;;;8.57;5.20;;;11.80;99.90;;;;;;5074221;28;20260;-69
2021/07/09 08:10:35;;;;;;;8.20;5.17;;;11.80;99.90;;;;;;5074717;28;20203;-69
2021/07/09 08:13:02;;;;;;;8.77;5.40;;;11.80;99.90;;;;;;5073713;28;20217;-73
2021/07/09 08:15:30;;;;;;;12.63;6.50;;;11.80;99.90;;;;;;5069245;28;20183;-68
2021/07/09 08:17:57;;;;;;;9.40;6.00;;;11.80;99.90;;;;;;5073069;28;20190;-75
2021/07/09 08:20:25;;;;;;;12.33;6.83;;;11.80;99.90;;;;;;5057094;28;20183;-71
2021/07/09 08:22:52;;;;;;;13.20;6.40;;;11.80;99.90;;;;;;5074128;28;20576;-70
2021/07/09 08:25:20;;;;;;;13.20;5.97;;;11.80;99.90;;;;;;5072534;28;20222;-72
2021/07/09 08:27:47;;;;;;;10.57;6.53;;;11.80;99.90;;;;;;5074605;28;20183;-70
2021/07/09 08:30:16;;;;;;;10.93;6.93;;;11.80;99.90;;;;;;5074443;28;20293;-77
2021/07/09 08:32:43;;;;;;;6.53;5.83;;;11.80;99.90;;;;;;5080999;28;20178;-72
2021/07/09 08:35:10;;;;;;;11.70;6.60;;;11.80;99.90;;;;;;5072696;28;20222;-75
2021/07/09 08:37:38;;;;;;;10.23;6.93;;;11.80;99.90;;;;;;5071977;28;20650;-70
2021/07/09 08:40:06;;;;;;;9.00;5.87;;;11.70;99.90;;;;;;5083117;28;20187;-74
2021/07/09 08:42:34;;;;;;;9.67;5.30;;;11.70;99.90;;;;;;5085757;28;20656;-74
2021/07/09 08:45:01;;;;;;;9.67;6.07;;;11.70;99.90;;;;;;5072198;28;20203;-70
2021/07/09 08:47:32;;;;;;;10.97;6.20;;;11.70;99.90;;;;;;5074552;28;20175;-70
2021/07/09 08:50:01;;;;;;;9.73;6.37;;;11.70;99.90;;;;;;5074103;28;20171;-71
2021/07/09 08:52:29;;;;;;;12.77;7.47;;;11.60;99.90;;;;;;5074475;28;20171;-73
2021/07/09 08:54:56;;;;;;;12.97;8.77;;;11.70;99.90;;;;;;5088089;28;20179;-68
2021/07/09 08:57:24;;;;;;;9.93;7.30;;;11.70;99.90;;;;;;5076897;28;20183;-74
2021/07/09 08:59:51;;;;;;;9.13;7.07;;;11.60;99.90;;;;;;5077119;28;20202;-72
2021/07/09 09:02:28;;;;;;;9.13;6.53;;;11.60;99.90;;;;;;5068129;28;20179;-71
2021/07/09 09:04:56;;;;;;;7.83;6.40;;;11.60;99.90;;;;;;5078926;28;20267;-71
2021/07/09 09:07:29;;;;;;;12.73;6.07;;;11.60;99.90;;;;;;5060301;28;20640;-70
2021/07/09 09:09:57;;;;;;;10.23;6.10;;;11.60;99.90;;;;;;5085214;28;20208;-69
2021/07/09 09:12:24;;;;;;;8.40;6.73;;;11.60;99.90;;;;;;5073419;28;20232;-70
2021/07/09 09:14:52;;;;;;;11.33;6.30;;;11.50;99.90;;;;;;5060225;28;20183;-75
2021/07/09 09:17:33;;;;;;;9.37;6.50;;;11.50;99.90;;;;;;5085906;28;20180;-70
2021/07/09 09:20:18;;;;;;;8.67;6.80;;;11.50;99.90;;;;;;5074643;28;20179;-70
2021/07/09 09:22:52;;;;;;;9.00;7.30;;;11.50;99.90;;;;;;5074942;28;20364;-72
2021/07/09 09:25:25;;;;;;;9.27;7.13;;;11.50;99.90;;;;;;5074264;28;20573;-74
2021/07/09 09:28:02;;;;;;;10.23;7.30;;;11.40;99.90;;;;;;5079002;28;20550;-72
2021/07/09 09:30:31;;;;;;;10.80;8.10;;;11.40;99.90;;;;;;5069774;28;20182;-73
2021/07/09 09:33:03;;;;;;;9.00;7.03;;;11.40;99.90;;;;;;5075090;28;20509;-70
2021/07/09 09:35:41;;;;;;;10.33;7.20;;;11.30;99.90;;;;;;5059435;28;20550;-70
2021/07/09 09:38:13;;;;;;;9.47;7.40;;;11.30;99.90;;;;;;5073989;28;20187;-70
2021/07/09 09:40:43;;;;;;;8.97;7.60;;;11.30;99.90;;;;;;5083519;28;20213;-70
2021/07/09 09:43:20;;;;;;;8.97;6.43;;;11.30;99.90;;;;;;5074210;28;20252;-73
2021/07/09 09:46:11;;;;;;;8.67;6.13;;;11.30;99.90;;;;;;5073942;28;20215;-74
2021/07/09 09:48:47;;;;;;;7.63;6.83;;;11.30;99.90;;;;;;5065356;28;20197;-75
2021/07/09 09:51:34;;;;;;;7.80;6.67;;;11.30;99.90;;;;;;5085809;28;20219;-70
2021/07/09 09:54:07;;;;;;;7.70;6.57;;;11.20;99.90;;;;;;5070137;28;20548;-68
2021/07/09 09:56:47;;;;;;;9.17;6.67;;;11.30;99.90;;;;;;5073200;28;20184;-69
2021/07/09 09:59:18;;;;;;;7.70;6.90;;;11.20;99.90;;;;;;5073763;28;20590;-73
2021/07/09 10:01:56;;;;;;;8.50;6.20;;;11.20;99.90;;;;;;5073577;28;20637;-69
2021/07/09 10:04:26;;;;;;;9.90;6.37;;;11.20;99.90;;;;;;5069576;28;20190;-79
2021/07/09 10:06:54;;;;;;;10.97;6.53;;;11.20;99.90;;;;;;5082904;28;20222;-69
2021/07/09 10:09:22;;;;;;;6.83;5.90;;;11.20;99.90;;;;;;5081298;28;20252;-73
2021/07/09 10:11:50;;;;;;;9.57;6.57;;;11.20;99.90;;;;;;5072353;28;20202;-70
2021/07/09 10:14:21;;;;;;;6.70;5.53;;;11.20;99.90;;;;;;5043487;28;20273;-69
2021/07/09 10:16:51;;;;;;;7.87;5.20;;;11.20;99.90;;;;;;5071114;28;20195;-70
2021/07/09 10:19:28;;;;;;;7.23;6.20;;;11.20;99.90;;;;;;5072292;28;20188;-68
2021/07/09 10:21:55;;;;;;;8.10;5.87;;;11.20;99.90;;;;;;5079783;28;20249;-75
2021/07/09 10:24:22;;;;;;;7.73;5.73;;;11.20;99.90;;;;;;5072854;28;20197;-69
2021/07/09 10:26:55;;;;;;;7.63;5.77;;;11.20;99.90;;;;;;5079989;28;20212;-70
2021/07/09 10:29:26;;;;;;;9.13;5.60;;;11.20;99.90;;;;;;5074867;28;20174;-71
2021/07/09 10:31:54;;;;;;;7.53;5.40;;;11.20;99.90;;;;;;5061460;28;20218;-70
2021/07/09 10:34:25;;;;;;;7.60;5.23;;;11.20;99.90;;;;;;5072418;28;20198;-69
2021/07/09 10:36:55;;;;;;;6.60;5.13;;;11.20;99.90;;;;;;5071327;28;20180;-72
2021/07/09 10:39:45;;;;;;;8.67;6.03;;;11.20;99.90;;;;;;5080591;28;20186;-68
2021/07/09 10:42:39;;;;;;;5.50;4.90;;;11.20;99.90;;;;;;5072889;28;20269;-72
2021/07/09 10:45:16;;;;;;;8.07;5.60;;;11.20;99.90;;;;;;5070655;28;20240;-73
2021/07/09 10:47:50;;;;;;;7.23;6.03;;;11.30;99.90;;;;;;5076319;28;20180;-77
2021/07/09 10:50:49;;;;;;;7.53;6.17;;;11.30;99.90;;;;;;5078150;28;20273;-69
2021/07/09 10:53:18;;;;;;;10.27;6.37;;;11.30;99.90;;;;;;5068830;28;20187;-74
2021/07/09 10:55:47;;;;;;;9.80;6.93;;;11.30;99.90;;;;;;5066893;28;20186;-75
2021/07/09 10:58:17;;;;;;;12.53;7.80;;;11.30;99.90;;;;;;5074088;28;20190;-77
2021/07/09 11:00:55;;;;;;;11.77;7.63;;;11.30;99.90;;;;;;5069875;28;20182;-72
2021/07/09 11:03:35;;;;;;;9.20;8.03;;;11.30;99.90;;;;;;5060374;28;20182;-71
2021/07/09 11:06:15;;;;;;;11.67;8.37;;;11.30;99.90;;;;;;5078291;28;20232;-76
2021/07/09 11:08:50;;;;;;;14.93;9.40;;;11.30;99.90;;;;;;5077423;28;20174;-76
2021/07/09 11:11:39;;;;;;;10.63;8.63;;;11.30;99.90;;;;;;5080378;28;20173;-73
2021/07/09 11:14:09;;;;;;;14.50;10.17;;;11.30;99.90;;;;;;5061215;28;20197;-71
2021/07/09 11:16:40;;;;;;;16.27;10.77;;;11.40;99.90;;;;;;5071809;28;20632;-73
2021/07/09 11:19:10;;;;;;;14.23;10.27;;;11.30;99.90;;;;;;5072414;28;20182;-72
2021/07/09 11:21:38;;;;;;;13.23;10.07;;;11.30;99.90;;;;;;5074218;28;20227;-72
2021/07/09 11:24:11;;;;;;;12.90;9.97;;;11.40;99.90;;;;;;5084517;28;20221;-73
2021/07/09 11:26:43;;;;;;;15.33;10.40;;;11.40;99.90;;;;;;5075992;28;20211;-77
2021/07/09 11:29:33;;;;;;;13.70;9.50;;;11.40;99.90;;;;;;5076100;28;20266;-76
2021/07/09 11:32:09;;;;;;;13.90;10.13;;;11.40;99.90;;;;;;5076312;28;20171;-74
2021/07/09 11:34:40;;;;;;;12.50;10.00;;;11.40;99.90;;;;;;5083072;28;20182;-71
2021/07/09 11:37:11;;;;;;;15.93;10.60;;;11.40;99.90;;;;;;5073660;28;20194;-71
2021/07/09 11:39:58;;;;;;;11.37;9.43;;;11.40;99.90;;;;;;5078084;28;20187;-75
2021/07/09 11:42:33;;;;;;;10.80;9.20;;;11.40;99.90;;;;;;5075385;28;20186;-76
2021/07/09 11:45:05;;;;;;;13.17;8.97;;;11.40;99.90;;;;;;5084746;28;20230;-75
2021/07/09 11:47:38;;;;;;;10.60;9.03;;;11.40;99.90;;;;;;5076918;28;20186;-74
2021/07/09 11:50:12;;;;;;;14.37;8.87;;;11.40;99.90;;;;;;5083084;28;20201;-74
2021/07/09 11:52:51;;;;;;;9.13;7.90;;;11.50;99.90;;;;;;5073116;28;20218;-78
2021/07/09 11:55:28;;;;;;;11.43;8.33;;;11.50;99.90;;;;;;5075992;28;20178;-72
2021/07/09 11:57:57;;;;;;;10.80;7.20;;;11.50;99.90;;;;;;5077156;28;20226;-73
2021/07/09 12:00:25;;;;;;;11.10;7.83;;;11.50;99.90;;;;;;5083589;28;20231;-75
2021/07/09 12:02:53;;;;;;;14.97;8.27;;;11.50;99.90;;;;;;5075875;28;20202;-79
2021/07/09 12:05:25;;;;;;;16.40;8.60;;;11.50;99.90;;;;;;5075782;28;20198;-75
2021/07/09 12:07:58;;;;;;;9.33;7.80;;;11.50;99.90;;;;;;5076250;28;20209;-72
2021/07/09 12:10:30;;;;;;;10.57;7.90;;;11.40;99.90;;;;;;5080791;28;20187;-80
2021/07/09 12:13:00;;;;;;;9.37;8.20;;;11.40;99.90;;;;;;5076178;28;20725;-80
2021/07/09 12:15:36;;;;;;;10.20;8.00;;;11.40;99.90;;;;;;5063918;28;20199;-83
2021/07/09 12:18:08;;;;;;;10.40;7.77;;;11.40;99.90;;;;;;5075144;28;20187;-77
2021/07/09 12:20:38;;;;;;;11.50;7.97;;;11.40;99.90;;;;;;5079471;28;20231;-80
2021/07/09 12:23:14;;;;;;;13.70;7.57;;;11.40;99.90;;;;;;5070733;28;20227;-79
2021/07/09 12:25:47;;;;;;;11.23;8.00;;;11.50;99.90;;;;;;5063697;28;20217;-80
2021/07/09 12:28:20;;;;;;;14.53;8.57;;;11.40;99.90;;;;;;5075846;28;20205;-83
2021/07/09 12:30:53;;;;;;;14.07;9.57;;;11.40;99.90;;;;;;5058746;28;20277;-80
2021/07/09 12:33:30;;;;;;;15.73;10.33;;;11.40;99.90;;;;;;5075641;28;20187;-72
2021/07/09 12:36:04;;;;;;;17.33;10.50;;;11.40;99.90;;;;;;5075845;28;20730;-77
2021/07/09 12:38:34;;;;;;;17.37;11.40;;;11.40;99.90;;;;;;5078088;28;20186;-81
2021/07/09 12:41:04;;;;;;;13.60;10.33;;;11.40;99.90;;;;;;5075861;28;20639;-78
2021/07/09 12:43:32;;;;;;;13.77;10.27;;;11.40;99.90;;;;;;5071210;28;20183;-83
2021/07/09 12:46:02;;;;;;;14.83;9.50;;;11.40;99.90;;;;;;5075145;28;20257;-77